sensor_id;sensor_type;location;lat;lon;timestamp;pressure;altitude;pressure_sealevel;temperature;humidity
41636;BME280;27623;51.966;4.602;2023-01-27T00:01:14;63979.88;;;7.25;100.00
41636;BME280;27623;51.966;4.602;2023-01-27T00:03:41;64005.22;;;7.18;100.00
41636;BME280;27623;51.966;4.602;2023-01-27T00:06:09;63936.63;;;7.15;100.00
41636;BME280;27623;51.966;4.602;2023-01-27T00:08:36;63965.75;;;7.19;100.00
41636;BME280;27623;51.966;4.602;2023-01-27T00:11:04;63984.59;;;7.27;100.00
41636;BME280;27623;51.966;4.602;2023-01-27T00:13:47;63983.50;;;7.26;100.00
41636;BME280;27623;51.966;4.602;2023-01-27T00:16:13;63972.63;;;7.16;100.00
41636;BME280;27623;51.966;4.602;2023-01-27T00:18:38;63955.25;;;7.21;100.00
41636;BME280;27623;51.966;4.602;2023-01-27T00:21:04;63977.50;;;7.28;100.00
41636;BME280;27623;51.966;4.602;2023-01-27T00:23:48;63993.63;;;7.26;100.00
41636;BME280;27623;51.966;4.602;2023-01-27T00:26:32;63984.41;;;7.32;100.00
41636;BME280;27623;51.966;4.602;2023-01-27T00:28:58;63990.56;;;7.26;100.00
41636;BME280;27623;51.966;4.602;2023-01-27T00:31:23;63957.25;;;7.28;100.00
41636;BME280;27623;51.966;4.602;2023-01-27T00:34:07;63979.34;;;7.24;100.00
41636;BME280;27623;51.966;4.602;2023-01-27T00:36:34;63973.19;;;7.23;99.95
41636;BME280;27623;51.966;4.602;2023-01-27T00:39:00;63986.03;;;7.26;99.03
41636;BME280;27623;51.966;4.602;2023-01-27T00:41:26;64004.50;;;7.36;99.35
41636;BME280;27623;51.966;4.602;2023-01-27T00:43:54;63940.22;;;7.31;98.94
41636;BME280;27623;51.966;4.602;2023-01-27T00:46:21;63972.28;;;7.32;99.44
41636;BME280;27623;51.966;4.602;2023-01-27T00:48:47;63992.53;;;7.32;99.00
41636;BME280;27623;51.966;4.602;2023-01-27T00:51:13;63969.38;;;7.27;98.98
41636;BME280;27623;51.966;4.602;2023-01-27T00:53:39;63980.59;;;7.42;99.49
41636;BME280;27623;51.966;4.602;2023-01-27T00:56:08;63962.84;;;7.28;98.61
41636;BME280;27623;51.966;4.602;2023-01-27T00:58:33;63993.63;;;7.26;99.32
41636;BME280;27623;51.966;4.602;2023-01-27T01:01:01;63984.59;;;7.34;100.00
41636;BME280;27623;51.966;4.602;2023-01-27T01:03:29;63987.28;;;7.22;100.00
41636;BME280;27623;51.966;4.602;2023-01-27T01:06:03;64000.69;;;7.26;100.00
41636;BME280;27623;51.966;4.602;2023-01-27T01:08:30;63943.69;;;7.22;100.00
41636;BME280;27623;51.966;4.602;2023-01-27T01:10:56;63979.16;;;7.36;100.00
41636;BME280;27623;51.966;4.602;2023-01-27T01:13:21;63981.31;;;7.31;99.09
41636;BME280;27623;51.966;4.602;2023-01-27T01:15:46;63998.50;;;7.31;99.27
41636;BME280;27623;51.966;4.602;2023-01-27T01:18:14;63969.91;;;7.28;99.53
41636;BME280;27623;51.966;4.602;2023-01-27T01:20:44;63997.78;;;7.20;99.65
41636;BME280;27623;51.966;4.602;2023-01-27T01:23:10;63938.06;;;7.14;99.63
41636;BME280;27623;51.966;4.602;2023-01-27T01:25:36;63993.28;;;7.21;99.83
41636;BME280;27623;51.966;4.602;2023-01-27T01:28:05;63958.88;;;7.22;100.00
41636;BME280;27623;51.966;4.602;2023-01-27T01:30:32;63960.88;;;7.21;99.63
41636;BME280;27623;51.966;4.602;2023-01-27T01:32:58;63974.28;;;7.24;99.15
41636;BME280;27623;51.966;4.602;2023-01-27T01:35:24;63985.28;;;7.16;98.87
41636;BME280;27623;51.966;4.602;2023-01-27T01:37:50;63963.56;;;7.17;99.00
41636;BME280;27623;51.966;4.602;2023-01-27T01:40:16;63954.16;;;7.20;99.19
41636;BME280;27623;51.966;4.602;2023-01-27T01:45:47;63949.47;;;7.11;98.59
41636;BME280;27623;51.966;4.602;2023-01-27T01:49:13;63938.78;;;7.10;97.79
41636;BME280;27623;51.966;4.602;2023-01-27T01:51:12;63967.38;;;6.99;98.29
41636;BME280;27623;51.966;4.602;2023-01-27T01:56:22;63965.19;;;6.97;97.50
41636;BME280;27623;51.966;4.602;2023-01-27T01:58:48;63969.34;;;6.99;97.80
41636;BME280;27623;51.966;4.602;2023-01-27T02:01:15;63940.06;;;7.00;97.96
41636;BME280;27623;51.966;4.602;2023-01-27T02:03:46;63943.47;;;6.98;96.72
41636;BME280;27623;51.966;4.602;2023-01-27T02:06:15;63944.56;;;6.92;97.03
41636;BME280;27623;51.966;4.602;2023-01-27T02:08:44;63933.16;;;6.96;96.99
41636;BME280;27623;51.966;4.602;2023-01-27T02:11:12;63927.56;;;7.02;97.00
41636;BME280;27623;51.966;4.602;2023-01-27T02:13:38;63927.00;;;6.95;96.95
41636;BME280;27623;51.966;4.602;2023-01-27T02:16:09;63944.38;;;6.97;96.74
41636;BME280;27623;51.966;4.602;2023-01-27T02:18:37;63932.25;;;6.97;96.60
41636;BME280;27623;51.966;4.602;2023-01-27T02:21:04;63919.78;;;6.93;95.89
41636;BME280;27623;51.966;4.602;2023-01-27T02:23:59;63958.13;;;6.90;95.01
41636;BME280;27623;51.966;4.602;2023-01-27T02:26:39;63936.44;;;6.99;96.21
41636;BME280;27623;51.966;4.602;2023-01-27T02:29:12;63944.38;;;6.89;95.83
41636;BME280;27623;51.966;4.602;2023-01-27T02:31:38;63931.19;;;7.03;95.43
41636;BME280;27623;51.966;4.602;2023-01-27T02:34:16;63954.00;;;7.03;95.32
41636;BME280;27623;51.966;4.602;2023-01-27T02:37:03;63960.47;;;6.88;95.79
41636;BME280;27623;51.966;4.602;2023-01-27T02:39:34;63944.41;;;7.04;96.37
41636;BME280;27623;51.966;4.602;2023-01-27T02:42:03;63918.69;;;6.99;96.06
41636;BME280;27623;51.966;4.602;2023-01-27T02:44:30;63930.81;;;6.91;96.32
41636;BME280;27623;51.966;4.602;2023-01-27T02:46:56;63949.63;;;6.92;96.36
41636;BME280;27623;51.966;4.602;2023-01-27T02:49:21;63961.59;;;7.03;95.97
41636;BME280;27623;51.966;4.602;2023-01-27T02:51:47;63967.38;;;6.99;95.75
41636;BME280;27623;51.966;4.602;2023-01-27T02:54:12;63923.41;;;6.94;96.14
41636;BME280;27623;51.966;4.602;2023-01-27T02:57:09;63917.97;;;6.88;95.55
41636;BME280;27623;51.966;4.602;2023-01-27T03:00:11;63909.81;;;6.88;95.38
41636;BME280;27623;51.966;4.602;2023-01-27T03:03:37;63924.44;;;6.66;95.22
41636;BME280;27623;51.966;4.602;2023-01-27T03:16:15;63920.50;;;6.74;95.58
41636;BME280;27623;51.966;4.602;2023-01-27T03:19:00;63895.72;;;6.82;95.78
41636;BME280;27623;51.966;4.602;2023-01-27T03:21:26;63929.16;;;6.68;94.76
41636;BME280;27623;51.966;4.602;2023-01-27T03:23:52;63911.44;;;6.75;96.02
41636;BME280;27623;51.966;4.602;2023-01-27T03:26:17;63962.47;;;6.87;95.44
41636;BME280;27623;51.966;4.602;2023-01-27T03:28:42;63922.31;;;6.78;94.63
41636;BME280;27623;51.966;4.602;2023-01-27T03:31:28;63921.75;;;6.78;94.26
41636;BME280;27623;51.966;4.602;2023-01-27T03:33:53;63914.34;;;6.73;94.35
41636;BME280;27623;51.966;4.602;2023-01-27T03:36:21;63910.34;;;6.67;94.65
41636;BME280;27623;51.966;4.602;2023-01-27T03:39:05;63848.53;;;6.59;94.78
41636;BME280;27623;51.966;4.602;2023-01-27T03:41:49;63930.78;;;6.63;95.62
41636;BME280;27623;51.966;4.602;2023-01-27T03:44:33;63915.97;;;6.61;95.46
41636;BME280;27623;51.966;4.602;2023-01-27T03:47:18;63913.44;;;6.61;95.81
41636;BME280;27623;51.966;4.602;2023-01-27T03:49:43;63892.28;;;6.62;95.46
41636;BME280;27623;51.966;4.602;2023-01-27T03:52:09;63934.41;;;6.64;95.62
41636;BME280;27623;51.966;4.602;2023-01-27T03:54:35;63894.81;;;6.55;95.34
41636;BME280;27623;51.966;4.602;2023-01-27T03:57:00;63917.78;;;6.72;95.42
41636;BME280;27623;51.966;4.602;2023-01-27T03:59:30;63917.78;;;6.65;95.66
41636;BME280;27623;51.966;4.602;2023-01-27T04:01:56;63916.16;;;6.77;95.11
41636;BME280;27623;51.966;4.602;2023-01-27T04:04:40;63912.34;;;6.74;94.96
41636;BME280;27623;51.966;4.602;2023-01-27T04:07:23;63940.91;;;6.70;94.11
41636;BME280;27623;51.966;4.602;2023-01-27T04:09:50;63940.94;;;6.84;93.69
41636;BME280;27623;51.966;4.602;2023-01-27T04:12:15;63910.53;;;6.70;93.31
41636;BME280;27623;51.966;4.602;2023-01-27T04:14:41;63920.66;;;6.70;93.70
41636;BME280;27623;51.966;4.602;2023-01-27T04:17:10;63920.47;;;6.67;94.17
41636;BME280;27623;51.966;4.602;2023-01-27T04:19:37;63875.47;;;6.61;94.00
41636;BME280;27623;51.966;4.602;2023-01-27T04:22:03;63862.06;;;6.43;93.85
41636;BME280;27623;51.966;4.602;2023-01-27T04:24:29;63889.72;;;6.48;94.90
41636;BME280;27623;51.966;4.602;2023-01-27T04:26:59;63922.66;;;6.62;95.05
41636;BME280;27623;51.966;4.602;2023-01-27T04:29:27;63900.94;;;6.56;95.17
41636;BME280;27623;51.966;4.602;2023-01-27T04:31:53;63870.94;;;6.61;94.55
41636;BME280;27623;51.966;4.602;2023-01-27T04:34:20;63917.41;;;6.60;94.38
41636;BME280;27623;51.966;4.602;2023-01-27T04:36:46;63891.34;;;6.49;93.76
41636;BME280;27623;51.966;4.602;2023-01-27T04:39:12;63883.94;;;6.52;93.56
41636;BME280;27623;51.966;4.602;2023-01-27T04:41:38;63862.06;;;6.43;93.41
41636;BME280;27623;51.966;4.602;2023-01-27T04:44:04;63906.91;;;6.47;93.88
41636;BME280;27623;51.966;4.602;2023-01-27T04:46:30;63899.13;;;6.45;94.23
41636;BME280;27623;51.966;4.602;2023-01-27T04:48:56;63912.34;;;6.52;94.26
41636;BME280;27623;51.966;4.602;2023-01-27T04:51:21;63936.75;;;6.61;94.49
41636;BME280;27623;51.966;4.602;2023-01-27T04:53:47;63893.16;;;6.53;93.78
41636;BME280;27623;51.966;4.602;2023-01-27T04:56:36;63899.69;;;6.52;93.81
41636;BME280;27623;51.966;4.602;2023-01-27T04:59:09;63887.94;;;6.58;93.28
41636;BME280;27623;51.966;4.602;2023-01-27T05:01:34;63940.91;;;6.63;92.84
41636;BME280;27623;51.966;4.602;2023-01-27T05:04:00;63903.66;;;6.51;92.47
41636;BME280;27623;51.966;4.602;2023-01-27T05:06:26;63879.78;;;6.43;92.72
41636;BME280;27623;51.966;4.602;2023-01-27T05:08:52;63900.94;;;6.49;92.54
41636;BME280;27623;51.966;4.602;2023-01-27T05:11:19;63872.03;;;6.55;92.49
41636;BME280;27623;51.966;4.602;2023-01-27T05:13:44;63874.00;;;6.47;92.01
41636;BME280;27623;51.966;4.602;2023-01-27T05:16:20;63890.47;;;6.44;92.02
41636;BME280;27623;51.966;4.602;2023-01-27T05:18:50;63874.00;;;6.40;91.07
41636;BME280;27623;51.966;4.602;2023-01-27T05:21:21;63864.59;;;6.50;92.22
41636;BME280;27623;51.966;4.602;2023-01-27T05:23:47;63903.09;;;6.51;90.74
41636;BME280;27623;51.966;4.602;2023-01-27T05:26:18;63908.38;;;6.61;89.94
41636;BME280;27623;51.966;4.602;2023-01-27T05:28:45;63850.88;;;6.42;90.18
41636;BME280;27623;51.966;4.602;2023-01-27T05:31:16;63891.16;;;6.47;89.93
41636;BME280;27623;51.966;4.602;2023-01-27T05:33:49;63881.59;;;6.47;90.67
41636;BME280;27623;51.966;4.602;2023-01-27T05:36:16;63887.75;;;6.41;90.20
41636;BME280;27623;51.966;4.602;2023-01-27T05:38:42;63866.41;;;6.40;89.54
41636;BME280;27623;51.966;4.602;2023-01-27T05:41:11;63900.22;;;6.53;89.85
41636;BME280;27623;51.966;4.602;2023-01-27T05:43:39;63855.56;;;6.44;90.21
41636;BME280;27623;51.966;4.602;2023-01-27T05:48:39;63900.38;;;6.48;90.19
41636;BME280;27623;51.966;4.602;2023-01-27T05:51:05;63863.16;;;6.37;89.85
41636;BME280;27623;51.966;4.602;2023-01-27T05:53:31;63904.91;;;6.41;90.60
41636;BME280;27623;51.966;4.602;2023-01-27T05:55:56;63872.00;;;6.41;90.69
41636;BME280;27623;51.966;4.602;2023-01-27T05:58:23;63866.56;;;6.29;88.25
41636;BME280;27623;51.966;4.602;2023-01-27T06:00:49;63842.53;;;6.25;88.95
41636;BME280;27623;51.966;4.602;2023-01-27T06:03:14;63855.03;;;6.37;89.44
41636;BME280;27623;51.966;4.602;2023-01-27T06:05:51;63892.06;;;6.45;89.85
41636;BME280;27623;51.966;4.602;2023-01-27T06:08:16;63864.41;;;6.34;89.31
41636;BME280;27623;51.966;4.602;2023-01-27T06:10:42;63895.88;;;6.42;89.27
41636;BME280;27623;51.966;4.602;2023-01-27T06:13:10;63894.06;;;6.52;88.70
41636;BME280;27623;51.966;4.602;2023-01-27T06:15:39;63882.31;;;6.36;88.59
41636;BME280;27623;51.966;4.602;2023-01-27T06:18:04;63866.06;;;6.42;88.85
41636;BME280;27623;51.966;4.602;2023-01-27T06:20:30;63888.44;;;6.44;88.26
41636;BME280;27623;51.966;4.602;2023-01-27T06:22:55;63855.56;;;6.23;87.90
41636;BME280;27623;51.966;4.602;2023-01-27T06:25:21;63853.72;;;6.26;87.17
41636;BME280;27623;51.966;4.602;2023-01-27T06:27:46;63855.38;;;6.35;87.96
41636;BME280;27623;51.966;4.602;2023-01-27T06:30:12;63834.78;;;6.37;88.58
41636;BME280;27623;51.966;4.602;2023-01-27T06:32:40;63870.56;;;6.42;88.85
41636;BME280;27623;51.966;4.602;2023-01-27T06:35:06;63880.13;;;6.34;87.79
41636;BME280;27623;51.966;4.602;2023-01-27T06:37:32;63870.19;;;6.37;88.33
41636;BME280;27623;51.966;4.602;2023-01-27T06:39:57;63841.28;;;6.22;87.49
41636;BME280;27623;51.966;4.602;2023-01-27T06:42:23;63862.59;;;6.30;88.44
41636;BME280;27623;51.966;4.602;2023-01-27T06:44:49;63876.16;;;6.35;88.37
41636;BME280;27623;51.966;4.602;2023-01-27T06:47:15;63876.34;;;6.31;87.98
41636;BME280;27623;51.966;4.602;2023-01-27T06:49:40;63867.66;;;6.37;87.87
41636;BME280;27623;51.966;4.602;2023-01-27T06:52:07;63859.69;;;6.25;87.61
41636;BME280;27623;51.966;4.602;2023-01-27T06:54:32;63846.88;;;6.36;87.37
41636;BME280;27623;51.966;4.602;2023-01-27T06:56:58;63900.03;;;6.36;86.90
41636;BME280;27623;51.966;4.602;2023-01-27T06:59:24;63888.66;;;6.40;86.54
41636;BME280;27623;51.966;4.602;2023-01-27T07:01:52;63885.22;;;6.41;86.50
41636;BME280;27623;51.966;4.602;2023-01-27T07:04:20;63885.38;;;6.37;86.32
41636;BME280;27623;51.966;4.602;2023-01-27T07:06:46;63900.22;;;6.39;86.61
41636;BME280;27623;51.966;4.602;2023-01-27T07:09:12;63852.50;;;6.37;85.14
41636;BME280;27623;51.966;4.602;2023-01-27T07:11:40;63851.56;;;6.31;84.67
41636;BME280;27623;51.966;4.602;2023-01-27T07:14:05;63899.81;;;6.27;85.05
41636;BME280;27623;51.966;4.602;2023-01-27T07:16:31;63861.72;;;6.38;85.73
41636;BME280;27623;51.966;4.602;2023-01-27T07:18:56;63866.41;;;6.33;83.86
41636;BME280;27623;51.966;4.602;2023-01-27T07:21:23;63883.94;;;6.45;83.95
41636;BME280;27623;51.966;4.602;2023-01-27T07:23:49;63835.47;;;6.11;83.68
41636;BME280;27623;51.966;4.602;2023-01-27T07:26:14;63865.28;;;6.25;85.40
41636;BME280;27623;51.966;4.602;2023-01-27T07:28:40;63827.00;;;6.20;83.21
41636;BME280;27623;51.966;4.602;2023-01-27T07:31:05;63869.47;;;6.34;83.96
41636;BME280;27623;51.966;4.602;2023-01-27T07:33:31;63867.13;;;6.36;83.88
41636;BME280;27623;51.966;4.602;2023-01-27T07:35:57;63859.53;;;6.43;83.84
41636;BME280;27623;51.966;4.602;2023-01-27T07:38:23;63861.50;;;6.14;83.67
41636;BME280;27623;51.966;4.602;2023-01-27T07:40:49;63855.38;;;6.20;84.32
41636;BME280;27623;51.966;4.602;2023-01-27T07:43:14;63836.75;;;6.15;83.57
41636;BME280;27623;51.966;4.602;2023-01-27T07:45:40;63871.09;;;6.28;84.04
41636;BME280;27623;51.966;4.602;2023-01-27T07:48:06;63887.16;;;6.19;84.03
41636;BME280;27623;51.966;4.602;2023-01-27T07:50:33;63870.34;;;6.25;83.23
41636;BME280;27623;51.966;4.602;2023-01-27T07:53:02;63831.50;;;6.12;82.21
41636;BME280;27623;51.966;4.602;2023-01-27T07:55:29;63842.72;;;6.13;82.62
41636;BME280;27623;51.966;4.602;2023-01-27T07:57:55;63846.16;;;6.19;82.01
41636;BME280;27623;51.966;4.602;2023-01-27T08:00:21;63843.44;;;6.16;82.26
41636;BME280;27623;51.966;4.602;2023-01-27T08:02:51;63834.75;;;6.15;82.08
41636;BME280;27623;51.966;4.602;2023-01-27T08:05:19;63886.44;;;6.24;81.83
41636;BME280;27623;51.966;4.602;2023-01-27T08:07:45;63854.09;;;6.17;80.75
41636;BME280;27623;51.966;4.602;2023-01-27T08:10:10;63842.72;;;6.20;82.27
41636;BME280;27623;51.966;4.602;2023-01-27T08:12:36;63826.81;;;6.10;81.65
41636;BME280;27623;51.966;4.602;2023-01-27T08:15:01;63861.31;;;6.19;82.57
41636;BME280;27623;51.966;4.602;2023-01-27T08:17:26;63817.03;;;6.08;81.47
41636;BME280;27623;51.966;4.602;2023-01-27T08:19:52;63829.16;;;6.15;82.48
41636;BME280;27623;51.966;4.602;2023-01-27T08:22:18;63853.91;;;6.14;83.30
41636;BME280;27623;51.966;4.602;2023-01-27T08:24:49;63832.59;;;6.13;82.97
41636;BME280;27623;51.966;4.602;2023-01-27T08:27:15;63837.66;;;6.20;82.09
41636;BME280;27623;51.966;4.602;2023-01-27T08:29:41;63880.13;;;6.27;82.93
41636;BME280;27623;51.966;4.602;2023-01-27T08:32:07;63846.69;;;6.19;83.38
41636;BME280;27623;51.966;4.602;2023-01-27T08:34:33;63892.81;;;6.41;83.02
41636;BME280;27623;51.966;4.602;2023-01-27T08:36:58;63876.34;;;6.31;82.71
41636;BME280;27623;51.966;4.602;2023-01-27T08:39:24;63843.63;;;6.40;83.87
41636;BME280;27623;51.966;4.602;2023-01-27T08:41:49;63898.00;;;6.30;83.61
41636;BME280;27623;51.966;4.602;2023-01-27T08:44:17;63835.50;;;6.18;83.19
41636;BME280;27623;51.966;4.602;2023-01-27T08:46:43;63857.34;;;6.27;83.58
41636;BME280;27623;51.966;4.602;2023-01-27T08:49:09;63868.56;;;6.28;84.33
41636;BME280;27623;51.966;4.602;2023-01-27T08:51:34;63868.72;;;6.24;83.95
41636;BME280;27623;51.966;4.602;2023-01-27T08:53:59;63860.59;;;6.30;83.85
41636;BME280;27623;51.966;4.602;2023-01-27T08:56:25;63854.66;;;6.32;82.73
41636;BME280;27623;51.966;4.602;2023-01-27T08:58:50;63844.34;;;6.36;82.79
41636;BME280;27623;51.966;4.602;2023-01-27T09:01:18;63881.41;;;6.31;82.79
41636;BME280;27623;51.966;4.602;2023-01-27T09:03:43;63854.47;;;6.36;82.18
41636;BME280;27623;51.966;4.602;2023-01-27T09:06:11;63880.69;;;6.35;81.88
41636;BME280;27623;51.966;4.602;2023-01-27T09:08:38;63861.88;;;6.48;82.58
41636;BME280;27623;51.966;4.602;2023-01-27T09:11:13;63895.88;;;6.49;82.80
41636;BME280;27623;51.966;4.602;2023-01-27T09:13:39;63859.53;;;6.50;82.33
41636;BME280;27623;51.966;4.602;2023-01-27T09:16:05;63881.06;;;6.54;81.70
41636;BME280;27623;51.966;4.602;2023-01-27T09:18:32;63902.56;;;6.50;81.97
41636;BME280;27623;51.966;4.602;2023-01-27T09:21:02;63887.75;;;6.55;82.09
41636;BME280;27623;51.966;4.602;2023-01-27T09:23:31;63874.19;;;6.71;80.89
41636;BME280;27623;51.966;4.602;2023-01-27T09:25:56;63903.88;;;6.82;80.92
41636;BME280;27623;51.966;4.602;2023-01-27T09:28:21;63937.13;;;6.87;79.77
41636;BME280;27623;51.966;4.602;2023-01-27T09:30:47;63926.66;;;6.89;79.48
41636;BME280;27623;51.966;4.602;2023-01-27T09:33:14;63913.09;;;7.05;79.25
41636;BME280;27623;51.966;4.602;2023-01-27T09:35:46;63946.19;;;7.08;80.09
41636;BME280;27623;51.966;4.602;2023-01-27T09:38:17;63946.19;;;7.15;78.52
41636;BME280;27623;51.966;4.602;2023-01-27T09:47:27;63970.09;;;7.37;78.02
41636;BME280;27623;51.966;4.602;2023-01-27T10:08:11;64044.34;;;7.90;75.53
41636;BME280;27623;51.966;4.602;2023-01-27T10:10:46;64065.22;;;8.05;74.36
41636;BME280;27623;51.966;4.602;2023-01-27T10:13:15;64015.19;;;7.93;73.30
41636;BME280;27623;51.966;4.602;2023-01-27T10:16:15;64034.94;;;8.28;73.71
41636;BME280;27623;51.966;4.602;2023-01-27T10:18:59;64112.72;;;8.30;74.24
41636;BME280;27623;51.966;4.602;2023-01-27T10:26:50;64121.41;;;8.74;71.39
41636;BME280;27623;51.966;4.602;2023-01-27T10:29:27;64177.66;;;8.93;69.69
41636;BME280;27623;51.966;4.602;2023-01-27T10:32:02;64127.03;;;8.88;69.32
41636;BME280;27623;51.966;4.602;2023-01-27T10:34:49;64163.16;;;8.89;68.94
41636;BME280;27623;51.966;4.602;2023-01-27T10:37:39;64167.81;;;9.19;67.79
41636;BME280;27623;51.966;4.602;2023-01-27T10:42:52;64186.00;;;9.32;68.43
41636;BME280;27623;51.966;4.602;2023-01-27T10:54:54;64160.59;;;8.96;68.67
41636;BME280;27623;51.966;4.602;2023-01-27T10:57:29;64131.19;;;9.04;69.07
41636;BME280;27623;51.966;4.602;2023-01-27T11:00:04;64157.66;;;9.26;68.68
41636;BME280;27623;51.966;4.602;2023-01-27T11:05:08;64175.13;;;9.14;68.26
41636;BME280;27623;51.966;4.602;2023-01-27T11:07:45;64151.72;;;8.92;68.64
41636;BME280;27623;51.966;4.602;2023-01-27T11:10:17;64139.38;;;8.62;69.16
41636;BME280;27623;51.966;4.602;2023-01-27T11:12:53;64149.91;;;8.81;70.43
41636;BME280;27623;51.966;4.602;2023-01-27T11:15:29;64101.28;;;8.41;70.56
41636;BME280;27623;51.966;4.602;2023-01-27T11:18:02;64065.38;;;8.28;72.69
41636;BME280;27623;51.966;4.602;2023-01-27T11:20:33;64097.84;;;8.35;71.95
41636;BME280;27623;51.966;4.602;2023-01-27T11:28:41;64044.00;;;8.06;73.04
41636;BME280;27623;51.966;4.602;2023-01-27T11:31:32;64053.41;;;8.24;72.76
41636;BME280;27623;51.966;4.602;2023-01-27T11:34:03;64053.41;;;8.32;71.60
41636;BME280;27623;51.966;4.602;2023-01-27T11:36:32;64055.22;;;8.21;72.09
41636;BME280;27623;51.966;4.602;2023-01-27T11:38:58;64098.19;;;8.26;72.65
41636;BME280;27623;51.966;4.602;2023-01-27T11:41:25;64023.16;;;8.13;71.83
41636;BME280;27623;51.966;4.602;2023-01-27T11:43:51;64062.84;;;8.21;72.71
41636;BME280;27623;51.966;4.602;2023-01-27T11:46:20;64069.91;;;8.14;72.60
41636;BME280;27623;51.966;4.602;2023-01-27T11:48:49;64051.78;;;8.02;74.47
41636;BME280;27623;51.966;4.602;2023-01-27T11:51:24;64080.25;;;8.09;73.63
41636;BME280;27623;51.966;4.602;2023-01-27T11:54:17;64038.75;;;8.04;74.26
41636;BME280;27623;51.966;4.602;2023-01-27T11:56:46;64042.75;;;7.88;75.03
41636;BME280;27623;51.966;4.602;2023-01-27T11:59:22;64047.97;;;7.91;75.39
41636;BME280;27623;51.966;4.602;2023-01-27T12:01:58;64008.31;;;7.89;76.13
41636;BME280;27623;51.966;4.602;2023-01-27T12:07:07;64051.06;;;7.99;75.89
41636;BME280;27623;51.966;4.602;2023-01-27T12:09:38;64015.56;;;8.06;75.48
41636;BME280;27623;51.966;4.602;2023-01-27T12:12:30;64008.47;;;8.06;75.65
41636;BME280;27623;51.966;4.602;2023-01-27T12:15:03;63977.16;;;7.79;75.50
41636;BME280;27623;51.966;4.602;2023-01-27T12:17:40;64047.63;;;7.86;76.18
41636;BME280;27623;51.966;4.602;2023-01-27T12:20:44;64042.72;;;7.74;76.25
41636;BME280;27623;51.966;4.602;2023-01-27T12:23:20;63974.78;;;7.82;76.55
41636;BME280;27623;51.966;4.602;2023-01-27T12:26:10;64004.88;;;7.84;76.60
41636;BME280;27623;51.966;4.602;2023-01-27T12:28:40;64014.28;;;7.74;77.11
41636;BME280;27623;51.966;4.602;2023-01-27T12:31:27;64024.81;;;7.65;77.86
41636;BME280;27623;51.966;4.602;2023-01-27T12:34:06;64023.53;;;7.75;77.86
41636;BME280;27623;51.966;4.602;2023-01-27T12:36:41;64018.81;;;7.80;78.97
41636;BME280;27623;51.966;4.602;2023-01-27T12:41:51;63966.66;;;7.67;78.30
41636;BME280;27623;51.966;4.602;2023-01-27T12:44:18;64021.00;;;7.75;78.72
41636;BME280;27623;51.966;4.602;2023-01-27T12:49:35;63985.31;;;7.58;78.94
41636;BME280;27623;51.966;4.602;2023-01-27T12:52:03;64027.16;;;7.76;78.64
41636;BME280;27623;51.966;4.602;2023-01-27T12:54:32;64002.50;;;7.72;78.95
41636;BME280;27623;51.966;4.602;2023-01-27T12:57:03;63996.53;;;7.67;79.63
41636;BME280;27623;51.966;4.602;2023-01-27T12:59:30;64013.75;;;7.66;78.98
41636;BME280;27623;51.966;4.602;2023-01-27T13:02:14;64012.47;;;7.70;79.15
41636;BME280;27623;51.966;4.602;2023-01-27T13:04:41;63979.50;;;7.77;79.45
41636;BME280;27623;51.966;4.602;2023-01-27T13:07:12;64012.66;;;7.79;79.20
41636;BME280;27623;51.966;4.602;2023-01-27T13:09:50;64022.78;;;7.72;79.41
41636;BME280;27623;51.966;4.602;2023-01-27T13:15:16;64000.34;;;7.70;78.42
41636;BME280;27623;51.966;4.602;2023-01-27T13:17:44;63990.19;;;7.70;79.14
41636;BME280;27623;51.966;4.602;2023-01-27T13:22:52;63986.94;;;7.67;79.50
41636;BME280;27623;51.966;4.602;2023-01-27T13:25:27;64025.69;;;7.63;79.66
41636;BME280;27623;51.966;4.602;2023-01-27T13:27:57;64016.28;;;7.73;78.43
41636;BME280;27623;51.966;4.602;2023-01-27T13:30:31;64001.44;;;7.78;77.59
41636;BME280;27623;51.966;4.602;2023-01-27T13:33:15;63995.63;;;7.75;76.64
41636;BME280;27623;51.966;4.602;2023-01-27T13:35:53;63993.66;;;7.69;77.08
41636;BME280;27623;51.966;4.602;2023-01-27T13:38:28;63984.03;;;7.69;76.84
41636;BME280;27623;51.966;4.602;2023-01-27T13:40:58;63998.88;;;7.50;76.60
41636;BME280;27623;51.966;4.602;2023-01-27T13:43:39;63961.78;;;7.55;76.29
41636;BME280;27623;51.966;4.602;2023-01-27T13:46:20;64013.19;;;7.73;76.13
41636;BME280;27623;51.966;4.602;2023-01-27T13:48:53;63970.09;;;7.44;76.54
41636;BME280;27623;51.966;4.602;2023-01-27T13:51:21;63965.22;;;7.40;76.96
41636;BME280;27623;51.966;4.602;2023-01-27T13:53:56;63967.19;;;7.53;77.86
41636;BME280;27623;51.966;4.602;2023-01-27T14:20:34;63954.53;;;7.39;79.35
41636;BME280;27623;51.966;4.602;2023-01-27T14:31:21;63979.16;;;7.50;79.30
41636;BME280;27623;51.966;4.602;2023-01-27T14:37:09;63969.38;;;7.41;78.25
41636;BME280;27623;51.966;4.602;2023-01-27T14:39:42;63962.50;;;7.44;79.14
41636;BME280;27623;51.966;4.602;2023-01-27T14:45:12;63970.28;;;7.47;78.87
41636;BME280;27623;51.966;4.602;2023-01-27T14:59:40;63966.84;;;7.34;80.45
41636;BME280;27623;51.966;4.602;2023-01-27T15:02:41;63959.78;;;7.28;80.91
41636;BME280;27623;51.966;4.602;2023-01-27T15:07:56;63943.84;;;7.32;81.11
41636;BME280;27623;51.966;4.602;2023-01-27T15:10:26;63967.38;;;7.42;79.24
41636;BME280;27623;51.966;4.602;2023-01-27T15:26:06;63955.44;;;7.16;79.60
41636;BME280;27623;51.966;4.602;2023-01-27T15:28:37;63942.03;;;7.20;79.77
41636;BME280;27623;51.966;4.602;2023-01-27T15:33:58;63927.03;;;7.16;78.76
41636;BME280;27623;51.966;4.602;2023-01-27T15:36:39;63996.16;;;7.26;79.42
41636;BME280;27623;51.966;4.602;2023-01-27T15:39:22;63909.81;;;7.09;79.41
41636;BME280;27623;51.966;4.602;2023-01-27T15:44:30;63926.28;;;7.13;80.05
41636;BME280;27623;51.966;4.602;2023-01-27T15:47:11;63962.50;;;7.37;79.38
41636;BME280;27623;51.966;4.602;2023-01-27T15:49:47;63977.34;;;7.18;79.04
41636;BME280;27623;51.966;4.602;2023-01-27T15:54:52;63908.19;;;6.94;79.93
41636;BME280;27623;51.966;4.602;2023-01-27T15:57:32;63918.16;;;7.05;81.00
41636;BME280;27623;51.966;4.602;2023-01-27T16:00:06;63944.03;;;7.13;80.15
41636;BME280;27623;51.966;4.602;2023-01-27T16:02:43;63959.59;;;7.11;81.19
41636;BME280;27623;51.966;4.602;2023-01-27T16:05:24;63929.56;;;6.95;80.37